sensor_id;sensor_type;location;lat;lon;timestamp;P1;durP1;ratioP1;P2;durP2;ratioP2
71154;SDS011;59375;53.216;5.728;2022-09-30T00:01:02;3.40;;;1.90;;
71154;SDS011;59375;53.216;5.728;2022-09-30T00:03:27;4.45;;;1.80;;
71154;SDS011;59375;53.216;5.728;2022-09-30T00:05:59;2.45;;;1.50;;
71154;SDS011;59375;53.216;5.728;2022-09-30T00:08:26;2.95;;;1.88;;
71154;SDS011;59375;53.216;5.728;2022-09-30T00:10:58;2.67;;;1.70;;
71154;SDS011;59375;53.216;5.728;2022-09-30T00:13:25;3.15;;;1.90;;
71154;SDS011;59375;53.216;5.728;2022-09-30T00:15:50;3.63;;;1.98;;
71154;SDS011;59375;53.216;5.728;2022-09-30T00:18:16;4.03;;;2.00;;
71154;SDS011;59375;53.216;5.728;2022-09-30T00:20:41;2.30;;;1.40;;
71154;SDS011;59375;53.216;5.728;2022-09-30T00:23:07;2.45;;;1.50;;
71154;SDS011;59375;53.216;5.728;2022-09-30T00:25:32;2.95;;;1.60;;
71154;SDS011;59375;53.216;5.728;2022-09-30T00:27:58;2.40;;;1.60;;
71154;SDS011;59375;53.216;5.728;2022-09-30T00:30:23;2.53;;;1.60;;
71154;SDS011;59375;53.216;5.728;2022-09-30T00:32:49;3.10;;;1.70;;
71154;SDS011;59375;53.216;5.728;2022-09-30T00:35:14;3.35;;;1.80;;
71154;SDS011;59375;53.216;5.728;2022-09-30T00:37:40;3.13;;;1.80;;
71154;SDS011;59375;53.216;5.728;2022-09-30T00:40:06;3.30;;;1.80;;
71154;SDS011;59375;53.216;5.728;2022-09-30T00:42:32;3.80;;;2.03;;
71154;SDS011;59375;53.216;5.728;2022-09-30T00:47:37;2.88;;;1.70;;
71154;SDS011;59375;53.216;5.728;2022-09-30T00:52:53;3.70;;;2.03;;
71154;SDS011;59375;53.216;5.728;2022-09-30T00:55:39;3.35;;;2.03;;
71154;SDS011;59375;53.216;5.728;2022-09-30T00:58:27;3.67;;;2.10;;
71154;SDS011;59375;53.216;5.728;2022-09-30T01:00:58;4.18;;;2.22;;
71154;SDS011;59375;53.216;5.728;2022-09-30T01:03:33;3.35;;;2.00;;
71154;SDS011;59375;53.216;5.728;2022-09-30T01:06:14;5.90;;;2.40;;
71154;SDS011;59375;53.216;5.728;2022-09-30T01:08:40;4.45;;;2.20;;
71154;SDS011;59375;53.216;5.728;2022-09-30T01:11:07;3.80;;;2.00;;
71154;SDS011;59375;53.216;5.728;2022-09-30T01:13:33;1.83;;;1.40;;
71154;SDS011;59375;53.216;5.728;2022-09-30T01:18:35;2.65;;;1.60;;
71154;SDS011;59375;53.216;5.728;2022-09-30T01:29:17;2.40;;;1.40;;
71154;SDS011;59375;53.216;5.728;2022-09-30T01:32:14;40.53;;;3.17;;
71154;SDS011;59375;53.216;5.728;2022-09-30T01:37:34;3.53;;;1.35;;
71154;SDS011;59375;53.216;5.728;2022-09-30T01:45:45;1.90;;;1.23;;
71154;SDS011;59375;53.216;5.728;2022-09-30T01:50:57;3.10;;;1.88;;
71154;SDS011;59375;53.216;5.728;2022-09-30T01:56:31;60.08;;;2.90;;
71154;SDS011;59375;53.216;5.728;2022-09-30T02:01:34;2.17;;;1.10;;
71154;SDS011;59375;53.216;5.728;2022-09-30T02:04:08;137.70;;;5.47;;
71154;SDS011;59375;53.216;5.728;2022-09-30T02:06:40;23.42;;;2.40;;
71154;SDS011;59375;53.216;5.728;2022-09-30T02:09:13;46.33;;;3.05;;
71154;SDS011;59375;53.216;5.728;2022-09-30T02:11:44;6.13;;;2.30;;
71154;SDS011;59375;53.216;5.728;2022-09-30T02:16:51;4.63;;;2.55;;
71154;SDS011;59375;53.216;5.728;2022-09-30T02:19:34;4.80;;;2.85;;
71154;SDS011;59375;53.216;5.728;2022-09-30T02:22:21;4.43;;;3.10;;
71154;SDS011;59375;53.216;5.728;2022-09-30T02:25:16;4.53;;;2.80;;
71154;SDS011;59375;53.216;5.728;2022-09-30T02:27:49;5.53;;;3.40;;
71154;SDS011;59375;53.216;5.728;2022-09-30T02:30:20;4.90;;;3.20;;
71154;SDS011;59375;53.216;5.728;2022-09-30T02:32:59;4.53;;;2.90;;
71154;SDS011;59375;53.216;5.728;2022-09-30T02:35:35;6.57;;;2.72;;
71154;SDS011;59375;53.216;5.728;2022-09-30T02:38:38;4.82;;;3.08;;
71154;SDS011;59375;53.216;5.728;2022-09-30T02:41:10;5.68;;;3.05;;
71154;SDS011;59375;53.216;5.728;2022-09-30T02:43:40;5.45;;;3.30;;
71154;SDS011;59375;53.216;5.728;2022-09-30T02:46:26;5.97;;;3.13;;
71154;SDS011;59375;53.216;5.728;2022-09-30T02:55:02;7.03;;;3.33;;
71154;SDS011;59375;53.216;5.728;2022-09-30T03:00:21;5.05;;;3.42;;
71154;SDS011;59375;53.216;5.728;2022-09-30T03:02:48;6.30;;;3.17;;
71154;SDS011;59375;53.216;5.728;2022-09-30T03:05:17;5.15;;;3.20;;
71154;SDS011;59375;53.216;5.728;2022-09-30T03:07:43;4.57;;;2.92;;
71154;SDS011;59375;53.216;5.728;2022-09-30T03:10:15;5.53;;;3.00;;
71154;SDS011;59375;53.216;5.728;2022-09-30T03:12:47;5.57;;;3.50;;
71154;SDS011;59375;53.216;5.728;2022-09-30T03:15:45;4.57;;;2.60;;
71154;SDS011;59375;53.216;5.728;2022-09-30T03:21:41;3.83;;;2.40;;
71154;SDS011;59375;53.216;5.728;2022-09-30T03:30:04;3.70;;;2.20;;
71154;SDS011;59375;53.216;5.728;2022-09-30T03:32:53;4.55;;;2.80;;
71154;SDS011;59375;53.216;5.728;2022-09-30T03:36:00;6.07;;;2.90;;
71154;SDS011;59375;53.216;5.728;2022-09-30T03:41:39;7.43;;;3.60;;
71154;SDS011;59375;53.216;5.728;2022-09-30T03:44:31;5.85;;;3.80;;
71154;SDS011;59375;53.216;5.728;2022-09-30T03:47:11;7.32;;;3.70;;
71154;SDS011;59375;53.216;5.728;2022-09-30T03:49:51;7.70;;;4.00;;
71154;SDS011;59375;53.216;5.728;2022-09-30T03:52:19;7.22;;;3.70;;
71154;SDS011;59375;53.216;5.728;2022-09-30T03:54:48;5.15;;;3.40;;
71154;SDS011;59375;53.216;5.728;2022-09-30T03:57:16;5.70;;;3.35;;
71154;SDS011;59375;53.216;5.728;2022-09-30T03:59:42;6.68;;;3.20;;
71154;SDS011;59375;53.216;5.728;2022-09-30T04:02:08;5.82;;;3.50;;
71154;SDS011;59375;53.216;5.728;2022-09-30T04:04:37;6.05;;;3.55;;
71154;SDS011;59375;53.216;5.728;2022-09-30T04:07:03;4.40;;;3.30;;
71154;SDS011;59375;53.216;5.728;2022-09-30T04:09:29;4.78;;;3.20;;
71154;SDS011;59375;53.216;5.728;2022-09-30T04:11:55;5.45;;;2.90;;
71154;SDS011;59375;53.216;5.728;2022-09-30T04:14:20;4.00;;;2.67;;
71154;SDS011;59375;53.216;5.728;2022-09-30T04:16:46;4.28;;;2.60;;
71154;SDS011;59375;53.216;5.728;2022-09-30T04:19:11;5.03;;;2.67;;
71154;SDS011;59375;53.216;5.728;2022-09-30T04:21:37;4.35;;;2.97;;
71154;SDS011;59375;53.216;5.728;2022-09-30T04:24:02;4.85;;;3.10;;
71154;SDS011;59375;53.216;5.728;2022-09-30T04:26:28;4.85;;;3.28;;
71154;SDS011;59375;53.216;5.728;2022-09-30T04:28:53;4.80;;;3.35;;
71154;SDS011;59375;53.216;5.728;2022-09-30T04:31:22;5.18;;;3.60;;
71154;SDS011;59375;53.216;5.728;2022-09-30T04:33:47;5.10;;;3.60;;
71154;SDS011;59375;53.216;5.728;2022-09-30T04:36:14;5.78;;;4.03;;
71154;SDS011;59375;53.216;5.728;2022-09-30T04:38:40;6.28;;;3.97;;
71154;SDS011;59375;53.216;5.728;2022-09-30T04:41:06;6.45;;;4.20;;
71154;SDS011;59375;53.216;5.728;2022-09-30T04:43:32;7.90;;;3.63;;
71154;SDS011;59375;53.216;5.728;2022-09-30T04:45:58;6.10;;;3.25;;
71154;SDS011;59375;53.216;5.728;2022-09-30T04:48:24;5.07;;;3.13;;
71154;SDS011;59375;53.216;5.728;2022-09-30T04:50:52;5.00;;;3.60;;
71154;SDS011;59375;53.216;5.728;2022-09-30T04:53:18;5.20;;;3.33;;
71154;SDS011;59375;53.216;5.728;2022-09-30T04:55:44;4.70;;;3.30;;
71154;SDS011;59375;53.216;5.728;2022-09-30T04:58:10;4.50;;;2.92;;
71154;SDS011;59375;53.216;5.728;2022-09-30T05:00:36;5.53;;;3.03;;
71154;SDS011;59375;53.216;5.728;2022-09-30T05:03:02;4.60;;;3.08;;
71154;SDS011;59375;53.216;5.728;2022-09-30T05:05:28;6.22;;;3.30;;
71154;SDS011;59375;53.216;5.728;2022-09-30T05:08:01;4.30;;;2.90;;
71154;SDS011;59375;53.216;5.728;2022-09-30T05:10:27;6.38;;;2.72;;
71154;SDS011;59375;53.216;5.728;2022-09-30T05:12:53;4.05;;;2.42;;
71154;SDS011;59375;53.216;5.728;2022-09-30T05:15:20;6.07;;;2.67;;
71154;SDS011;59375;53.216;5.728;2022-09-30T05:17:47;8.77;;;2.53;;
71154;SDS011;59375;53.216;5.728;2022-09-30T05:20:13;4.13;;;2.25;;
71154;SDS011;59375;53.216;5.728;2022-09-30T05:22:39;3.88;;;2.40;;
71154;SDS011;59375;53.216;5.728;2022-09-30T05:25:04;4.20;;;2.20;;
71154;SDS011;59375;53.216;5.728;2022-09-30T05:27:31;8.30;;;2.65;;
71154;SDS011;59375;53.216;5.728;2022-09-30T05:29:56;6.35;;;2.20;;
71154;SDS011;59375;53.216;5.728;2022-09-30T05:32:22;7.55;;;2.60;;
71154;SDS011;59375;53.216;5.728;2022-09-30T05:34:48;17.45;;;2.92;;
71154;SDS011;59375;53.216;5.728;2022-09-30T05:37:14;9.18;;;2.63;;
71154;SDS011;59375;53.216;5.728;2022-09-30T05:39:40;9.10;;;2.53;;
71154;SDS011;59375;53.216;5.728;2022-09-30T05:42:06;4.57;;;2.50;;
71154;SDS011;59375;53.216;5.728;2022-09-30T05:44:32;5.53;;;2.55;;
71154;SDS011;59375;53.216;5.728;2022-09-30T05:46:57;6.93;;;2.53;;
71154;SDS011;59375;53.216;5.728;2022-09-30T05:49:23;7.85;;;2.85;;
71154;SDS011;59375;53.216;5.728;2022-09-30T05:51:50;21.27;;;4.22;;
71154;SDS011;59375;53.216;5.728;2022-09-30T05:54:16;10.20;;;2.50;;
71154;SDS011;59375;53.216;5.728;2022-09-30T05:56:41;6.85;;;2.10;;
71154;SDS011;59375;53.216;5.728;2022-09-30T05:59:07;4.40;;;2.20;;
71154;SDS011;59375;53.216;5.728;2022-09-30T06:01:32;5.35;;;2.35;;
71154;SDS011;59375;53.216;5.728;2022-09-30T06:03:58;4.55;;;2.10;;
71154;SDS011;59375;53.216;5.728;2022-09-30T06:06:23;4.10;;;2.17;;
71154;SDS011;59375;53.216;5.728;2022-09-30T06:08:50;5.85;;;2.60;;
71154;SDS011;59375;53.216;5.728;2022-09-30T06:11:17;3.85;;;2.45;;
71154;SDS011;59375;53.216;5.728;2022-09-30T06:13:44;3.50;;;2.22;;
71154;SDS011;59375;53.216;5.728;2022-09-30T06:16:14;3.95;;;2.38;;
71154;SDS011;59375;53.216;5.728;2022-09-30T06:18:42;4.13;;;2.55;;
71154;SDS011;59375;53.216;5.728;2022-09-30T06:21:10;3.75;;;2.35;;
71154;SDS011;59375;53.216;5.728;2022-09-30T06:23:37;3.70;;;2.45;;
71154;SDS011;59375;53.216;5.728;2022-09-30T06:26:04;4.63;;;2.47;;
71154;SDS011;59375;53.216;5.728;2022-09-30T06:28:30;22.58;;;2.30;;
71154;SDS011;59375;53.216;5.728;2022-09-30T06:30:59;15.68;;;2.60;;
71154;SDS011;59375;53.216;5.728;2022-09-30T06:33:28;16.15;;;2.40;;
71154;SDS011;59375;53.216;5.728;2022-09-30T06:35:54;27.25;;;2.95;;
71154;SDS011;59375;53.216;5.728;2022-09-30T06:38:20;17.05;;;2.50;;
71154;SDS011;59375;53.216;5.728;2022-09-30T06:40:47;64.38;;;3.97;;
71154;SDS011;59375;53.216;5.728;2022-09-30T06:43:14;17.80;;;3.10;;
71154;SDS011;59375;53.216;5.728;2022-09-30T06:45:47;11.55;;;2.92;;
71154;SDS011;59375;53.216;5.728;2022-09-30T06:48:15;37.38;;;4.55;;
71154;SDS011;59375;53.216;5.728;2022-09-30T06:50:41;18.45;;;3.70;;
71154;SDS011;59375;53.216;5.728;2022-09-30T06:53:07;39.08;;;4.18;;
71154;SDS011;59375;53.216;5.728;2022-09-30T06:55:35;13.18;;;3.63;;
71154;SDS011;59375;53.216;5.728;2022-09-30T06:58:03;5.05;;;3.60;;
71154;SDS011;59375;53.216;5.728;2022-09-30T07:00:35;5.85;;;3.78;;
71154;SDS011;59375;53.216;5.728;2022-09-30T07:03:01;5.30;;;3.55;;
71154;SDS011;59375;53.216;5.728;2022-09-30T07:05:29;5.43;;;3.50;;
71154;SDS011;59375;53.216;5.728;2022-09-30T07:07:55;5.75;;;3.95;;
71154;SDS011;59375;53.216;5.728;2022-09-30T07:10:20;4.88;;;3.50;;
71154;SDS011;59375;53.216;5.728;2022-09-30T07:12:50;5.85;;;4.07;;
71154;SDS011;59375;53.216;5.728;2022-09-30T07:15:16;7.60;;;4.00;;
71154;SDS011;59375;53.216;5.728;2022-09-30T07:17:50;7.43;;;4.03;;
71154;SDS011;59375;53.216;5.728;2022-09-30T07:20:16;4.95;;;3.40;;
71154;SDS011;59375;53.216;5.728;2022-09-30T07:22:41;4.93;;;3.50;;
71154;SDS011;59375;53.216;5.728;2022-09-30T07:25:07;6.10;;;3.38;;
71154;SDS011;59375;53.216;5.728;2022-09-30T07:27:33;7.10;;;3.42;;
71154;SDS011;59375;53.216;5.728;2022-09-30T07:29:59;6.68;;;3.10;;
71154;SDS011;59375;53.216;5.728;2022-09-30T07:32:26;6.15;;;3.10;;
71154;SDS011;59375;53.216;5.728;2022-09-30T07:34:51;4.75;;;3.00;;
71154;SDS011;59375;53.216;5.728;2022-09-30T07:37:17;4.50;;;2.90;;
71154;SDS011;59375;53.216;5.728;2022-09-30T07:39:44;5.10;;;3.03;;
71154;SDS011;59375;53.216;5.728;2022-09-30T07:42:12;4.85;;;3.00;;
71154;SDS011;59375;53.216;5.728;2022-09-30T07:44:39;5.05;;;3.05;;
71154;SDS011;59375;53.216;5.728;2022-09-30T07:47:11;3.97;;;2.90;;
71154;SDS011;59375;53.216;5.728;2022-09-30T07:49:41;5.43;;;3.10;;
71154;SDS011;59375;53.216;5.728;2022-09-30T07:52:08;5.35;;;3.10;;
71154;SDS011;59375;53.216;5.728;2022-09-30T07:54:35;6.18;;;3.30;;
71154;SDS011;59375;53.216;5.728;2022-09-30T07:57:01;5.55;;;3.50;;
71154;SDS011;59375;53.216;5.728;2022-09-30T07:59:28;6.22;;;3.50;;
71154;SDS011;59375;53.216;5.728;2022-09-30T08:01:56;6.32;;;3.60;;
71154;SDS011;59375;53.216;5.728;2022-09-30T08:04:22;5.07;;;3.22;;
71154;SDS011;59375;53.216;5.728;2022-09-30T08:06:50;5.82;;;3.42;;
71154;SDS011;59375;53.216;5.728;2022-09-30T08:09:21;5.35;;;3.38;;
71154;SDS011;59375;53.216;5.728;2022-09-30T08:11:48;4.65;;;3.33;;
71154;SDS011;59375;53.216;5.728;2022-09-30T08:14:15;5.10;;;3.38;;
71154;SDS011;59375;53.216;5.728;2022-09-30T08:16:43;5.03;;;3.63;;
71154;SDS011;59375;53.216;5.728;2022-09-30T08:19:12;5.18;;;3.42;;
71154;SDS011;59375;53.216;5.728;2022-09-30T08:21:43;5.63;;;3.75;;
71154;SDS011;59375;53.216;5.728;2022-09-30T08:24:09;4.88;;;3.58;;
71154;SDS011;59375;53.216;5.728;2022-09-30T08:26:36;5.63;;;3.55;;
71154;SDS011;59375;53.216;5.728;2022-09-30T08:29:02;5.20;;;4.05;;
71154;SDS011;59375;53.216;5.728;2022-09-30T08:31:27;6.15;;;4.10;;
71154;SDS011;59375;53.216;5.728;2022-09-30T08:33:53;6.55;;;3.50;;
71154;SDS011;59375;53.216;5.728;2022-09-30T08:36:20;7.00;;;4.10;;
71154;SDS011;59375;53.216;5.728;2022-09-30T08:38:47;5.57;;;3.70;;
71154;SDS011;59375;53.216;5.728;2022-09-30T08:44:05;6.90;;;3.90;;
71154;SDS011;59375;53.216;5.728;2022-09-30T08:52:17;4.60;;;3.13;;
71154;SDS011;59375;53.216;5.728;2022-09-30T08:54:47;5.30;;;3.15;;
71154;SDS011;59375;53.216;5.728;2022-09-30T08:57:16;6.22;;;3.40;;
71154;SDS011;59375;53.216;5.728;2022-09-30T08:59:44;4.60;;;2.78;;
71154;SDS011;59375;53.216;5.728;2022-09-30T09:02:20;4.28;;;2.70;;
71154;SDS011;59375;53.216;5.728;2022-09-30T09:04:51;6.45;;;2.53;;
71154;SDS011;59375;53.216;5.728;2022-09-30T09:07:29;4.80;;;2.88;;
71154;SDS011;59375;53.216;5.728;2022-09-30T09:13:04;4.50;;;2.70;;
71154;SDS011;59375;53.216;5.728;2022-09-30T09:18:48;5.25;;;3.35;;
71154;SDS011;59375;53.216;5.728;2022-09-30T09:21:33;6.13;;;3.17;;
71154;SDS011;59375;53.216;5.728;2022-09-30T09:24:18;5.25;;;3.28;;
71154;SDS011;59375;53.216;5.728;2022-09-30T09:26:46;6.57;;;3.80;;
71154;SDS011;59375;53.216;5.728;2022-09-30T09:29:35;5.55;;;3.80;;
71154;SDS011;59375;53.216;5.728;2022-09-30T09:37:19;4.50;;;2.50;;
71154;SDS011;59375;53.216;5.728;2022-09-30T09:40:18;4.07;;;2.40;;
71154;SDS011;59375;53.216;5.728;2022-09-30T09:45:37;4.68;;;2.40;;
71154;SDS011;59375;53.216;5.728;2022-09-30T09:48:15;3.88;;;2.15;;
71154;SDS011;59375;53.216;5.728;2022-09-30T09:50:45;4.60;;;2.38;;
71154;SDS011;59375;53.216;5.728;2022-09-30T09:53:29;4.60;;;2.42;;
71154;SDS011;59375;53.216;5.728;2022-09-30T09:56:23;3.97;;;1.98;;
71154;SDS011;59375;53.216;5.728;2022-09-30T09:59:09;5.38;;;2.30;;
71154;SDS011;59375;53.216;5.728;2022-09-30T10:01:41;4.43;;;2.10;;
71154;SDS011;59375;53.216;5.728;2022-09-30T10:04:11;4.50;;;2.20;;
71154;SDS011;59375;53.216;5.728;2022-09-30T10:06:43;3.38;;;2.00;;
71154;SDS011;59375;53.216;5.728;2022-09-30T10:09:46;3.70;;;1.90;;
71154;SDS011;59375;53.216;5.728;2022-09-30T10:14:33;3.20;;;1.70;;
71154;SDS011;59375;53.216;5.728;2022-09-30T10:16:59;5.72;;;2.05;;
71154;SDS011;59375;53.216;5.728;2022-09-30T10:19:26;3.45;;;1.90;;
71154;SDS011;59375;53.216;5.728;2022-09-30T10:22:39;2.60;;;1.70;;
71154;SDS011;59375;53.216;5.728;2022-09-30T10:24:40;4.35;;;2.30;;
71154;SDS011;59375;53.216;5.728;2022-09-30T10:30:12;4.07;;;2.30;;
71154;SDS011;59375;53.216;5.728;2022-09-30T10:32:37;4.70;;;2.72;;
71154;SDS011;59375;53.216;5.728;2022-09-30T10:35:05;4.20;;;2.50;;
71154;SDS011;59375;53.216;5.728;2022-09-30T10:37:48;4.55;;;2.50;;
71154;SDS011;59375;53.216;5.728;2022-09-30T10:40:18;5.03;;;2.63;;
71154;SDS011;59375;53.216;5.728;2022-09-30T10:42:47;5.82;;;2.70;;
71154;SDS011;59375;53.216;5.728;2022-09-30T10:45:18;4.65;;;2.67;;
71154;SDS011;59375;53.216;5.728;2022-09-30T10:47:56;6.20;;;3.00;;
71154;SDS011;59375;53.216;5.728;2022-09-30T10:50:32;3.80;;;2.40;;
71154;SDS011;59375;53.216;5.728;2022-09-30T10:53:02;4.07;;;2.35;;
71154;SDS011;59375;53.216;5.728;2022-09-30T10:55:41;4.75;;;2.42;;
71154;SDS011;59375;53.216;5.728;2022-09-30T10:58:50;4.18;;;2.55;;
71154;SDS011;59375;53.216;5.728;2022-09-30T11:01:13;4.55;;;2.25;;
71154;SDS011;59375;53.216;5.728;2022-09-30T11:03:55;4.78;;;2.45;;
71154;SDS011;59375;53.216;5.728;2022-09-30T11:06:26;3.55;;;2.10;;
71154;SDS011;59375;53.216;5.728;2022-09-30T11:08:57;3.90;;;2.20;;
71154;SDS011;59375;53.216;5.728;2022-09-30T11:11:37;3.13;;;1.80;;
71154;SDS011;59375;53.216;5.728;2022-09-30T11:20:17;4.20;;;1.63;;
71154;SDS011;59375;53.216;5.728;2022-09-30T11:22:57;2.92;;;1.60;;
71154;SDS011;59375;53.216;5.728;2022-09-30T11:31:28;3.72;;;1.85;;
71154;SDS011;59375;53.216;5.728;2022-09-30T11:34:14;2.92;;;1.60;;
71154;SDS011;59375;53.216;5.728;2022-09-30T11:37:01;2.67;;;1.50;;
71154;SDS011;59375;53.216;5.728;2022-09-30T11:45:14;4.15;;;2.13;;
71154;SDS011;59375;53.216;5.728;2022-09-30T11:48:39;4.07;;;2.10;;
71154;SDS011;59375;53.216;5.728;2022-09-30T11:57:13;3.58;;;2.20;;
71154;SDS011;59375;53.216;5.728;2022-09-30T11:59:47;3.60;;;2.20;;
71154;SDS011;59375;53.216;5.728;2022-09-30T12:02:34;4.55;;;2.00;;
71154;SDS011;59375;53.216;5.728;2022-09-30T12:07:57;4.72;;;2.40;;
71154;SDS011;59375;53.216;5.728;2022-09-30T12:10:37;3.83;;;2.30;;
71154;SDS011;59375;53.216;5.728;2022-09-30T12:13:24;4.25;;;2.50;;
71154;SDS011;59375;53.216;5.728;2022-09-30T12:15:53;4.07;;;2.08;;
71154;SDS011;59375;53.216;5.728;2022-09-30T12:18:24;3.30;;;1.98;;
71154;SDS011;59375;53.216;5.728;2022-09-30T12:20:58;4.25;;;2.10;;
71154;SDS011;59375;53.216;5.728;2022-09-30T12:23:31;5.63;;;2.65;;
71154;SDS011;59375;53.216;5.728;2022-09-30T12:26:03;3.92;;;2.30;;
71154;SDS011;59375;53.216;5.728;2022-09-30T12:28:36;3.90;;;2.33;;
71154;SDS011;59375;53.216;5.728;2022-09-30T12:34:28;4.85;;;2.35;;
71154;SDS011;59375;53.216;5.728;2022-09-30T12:45:34;4.47;;;2.67;;
71154;SDS011;59375;53.216;5.728;2022-09-30T12:48:12;5.63;;;2.60;;
71154;SDS011;59375;53.216;5.728;2022-09-30T12:50:52;6.05;;;2.70;;
71154;SDS011;59375;53.216;5.728;2022-09-30T12:53:28;4.30;;;2.95;;
71154;SDS011;59375;53.216;5.728;2022-09-30T12:56:06;4.90;;;2.80;;
71154;SDS011;59375;53.216;5.728;2022-09-30T12:58:40;4.70;;;2.80;;
71154;SDS011;59375;53.216;5.728;2022-09-30T13:01:15;4.15;;;2.65;;
71154;SDS011;59375;53.216;5.728;2022-09-30T13:06:27;4.32;;;2.85;;
71154;SDS011;59375;53.216;5.728;2022-09-30T13:11:44;4.90;;;3.47;;
71154;SDS011;59375;53.216;5.728;2022-09-30T13:14:38;5.88;;;3.80;;
71154;SDS011;59375;53.216;5.728;2022-09-30T13:27:35;4.85;;;3.03;;
71154;SDS011;59375;53.216;5.728;2022-09-30T13:40:39;4.22;;;2.47;;
71154;SDS011;59375;53.216;5.728;2022-09-30T13:43:38;4.47;;;2.30;;
71154;SDS011;59375;53.216;5.728;2022-09-30T13:46:31;4.20;;;2.20;;
71154;SDS011;59375;53.216;5.728;2022-09-30T13:49:22;4.75;;;2.40;;
71154;SDS011;59375;53.216;5.728;2022-09-30T13:52:28;4.57;;;1.88;;
71154;SDS011;59375;53.216;5.728;2022-09-30T13:54:57;4.03;;;1.90;;
71154;SDS011;59375;53.216;5.728;2022-09-30T13:57:37;4.15;;;2.00;;
71154;SDS011;59375;53.216;5.728;2022-09-30T14:00:25;3.88;;;2.10;;
71154;SDS011;59375;53.216;5.728;2022-09-30T14:03:18;3.85;;;2.10;;
71154;SDS011;59375;53.216;5.728;2022-09-30T14:06:22;4.32;;;2.20;;
71154;SDS011;59375;53.216;5.728;2022-09-30T14:11:59;4.63;;;1.80;;
71154;SDS011;59375;53.216;5.728;2022-09-30T14:22:54;2.72;;;1.60;;
71154;SDS011;59375;53.216;5.728;2022-09-30T14:25:20;5.07;;;1.85;;
71154;SDS011;59375;53.216;5.728;2022-09-30T14:30:22;4.72;;;1.80;;
71154;SDS011;59375;53.216;5.728;2022-09-30T14:32:51;3.50;;;1.60;;
71154;SDS011;59375;53.216;5.728;2022-09-30T14:35:38;2.95;;;1.95;;
71154;SDS011;59375;53.216;5.728;2022-09-30T14:40:52;3.38;;;1.70;;
71154;SDS011;59375;53.216;5.728;2022-09-30T14:43:21;4.10;;;1.70;;
71154;SDS011;59375;53.216;5.728;2022-09-30T14:45:52;4.00;;;1.80;;
71154;SDS011;59375;53.216;5.728;2022-09-30T14:48:21;6.32;;;2.00;;
71154;SDS011;59375;53.216;5.728;2022-09-30T14:51:03;3.70;;;1.65;;
71154;SDS011;59375;53.216;5.728;2022-09-30T14:53:35;3.65;;;1.70;;
71154;SDS011;59375;53.216;5.728;2022-09-30T14:56:13;4.65;;;1.98;;
71154;SDS011;59375;53.216;5.728;2022-09-30T14:58:45;4.70;;;2.08;;
71154;SDS011;59375;53.216;5.728;2022-09-30T15:01:15;4.32;;;1.90;;
71154;SDS011;59375;53.216;5.728;2022-09-30T15:03:46;4.53;;;1.95;;
71154;SDS011;59375;53.216;5.728;2022-09-30T15:06:23;3.92;;;2.00;;
71154;SDS011;59375;53.216;5.728;2022-09-30T15:09:03;4.35;;;2.28;;
71154;SDS011;59375;53.216;5.728;2022-09-30T15:11:31;5.40;;;2.67;;
71154;SDS011;59375;53.216;5.728;2022-09-30T15:14:00;4.78;;;2.10;;
71154;SDS011;59375;53.216;5.728;2022-09-30T15:16:33;5.35;;;2.55;;
71154;SDS011;59375;53.216;5.728;2022-09-30T15:18:58;3.60;;;2.10;;
71154;SDS011;59375;53.216;5.728;2022-09-30T15:21:25;5.22;;;2.40;;
71154;SDS011;59375;53.216;5.728;2022-09-30T15:23:54;3.97;;;2.40;;
71154;SDS011;59375;53.216;5.728;2022-09-30T15:26:22;4.65;;;2.65;;
71154;SDS011;59375;53.216;5.728;2022-09-30T15:28:49;5.35;;;2.78;;
71154;SDS011;59375;53.216;5.728;2022-09-30T15:31:27;5.50;;;2.78;;
71154;SDS011;59375;53.216;5.728;2022-09-30T15:36:30;5.72;;;3.20;;
71154;SDS011;59375;53.216;5.728;2022-09-30T15:38:58;8.40;;;3.40;;
71154;SDS011;59375;53.216;5.728;2022-09-30T15:41:23;6.55;;;3.53;;
71154;SDS011;59375;53.216;5.728;2022-09-30T15:43:50;5.70;;;2.85;;
71154;SDS011;59375;53.216;5.728;2022-09-30T15:46:22;5.97;;;3.42;;
71154;SDS011;59375;53.216;5.728;2022-09-30T15:48:53;7.63;;;4.00;;
71154;SDS011;59375;53.216;5.728;2022-09-30T15:51:27;6.20;;;3.65;;
71154;SDS011;59375;53.216;5.728;2022-09-30T15:54:47;6.07;;;3.85;;
71154;SDS011;59375;53.216;5.728;2022-09-30T15:57:03;9.15;;;4.70;;
71154;SDS011;59375;53.216;5.728;2022-09-30T16:00:02;7.30;;;4.20;;
71154;SDS011;59375;53.216;5.728;2022-09-30T16:02:31;6.45;;;3.85;;
71154;SDS011;59375;53.216;5.728;2022-09-30T16:04:57;6.60;;;4.60;;
71154;SDS011;59375;53.216;5.728;2022-09-30T16:07:26;7.60;;;4.30;;
71154;SDS011;59375;53.216;5.728;2022-09-30T16:09:53;5.75;;;4.15;;
71154;SDS011;59375;53.216;5.728;2022-09-30T16:12:21;6.85;;;4.05;;
71154;SDS011;59375;53.216;5.728;2022-09-30T16:14:59;6.97;;;4.50;;
71154;SDS011;59375;53.216;5.728;2022-09-30T16:19:58;5.78;;;4.03;;
71154;SDS011;59375;53.216;5.728;2022-09-30T16:22:32;8.02;;;4.55;;
71154;SDS011;59375;53.216;5.728;2022-09-30T16:28:00;5.50;;;4.20;;
71154;SDS011;59375;53.216;5.728;2022-09-30T16:30:26;7.38;;;4.75;;
71154;SDS011;59375;53.216;5.728;2022-09-30T16:32:54;5.95;;;4.30;;
71154;SDS011;59375;53.216;5.728;2022-09-30T16:35:25;8.68;;;5.00;;
71154;SDS011;59375;53.216;5.728;2022-09-30T16:38:00;9.65;;;4.70;;
71154;SDS011;59375;53.216;5.728;2022-09-30T16:40:28;6.63;;;4.90;;
71154;SDS011;59375;53.216;5.728;2022-09-30T16:42:56;6.70;;;4.70;;
71154;SDS011;59375;53.216;5.728;2022-09-30T16:45:25;6.30;;;5.30;;
71154;SDS011;59375;53.216;5.728;2022-09-30T16:47:52;6.65;;;4.30;;
71154;SDS011;59375;53.216;5.728;2022-09-30T16:50:42;7.57;;;4.88;;
71154;SDS011;59375;53.216;5.728;2022-09-30T16:53:21;7.30;;;4.97;;
71154;SDS011;59375;53.216;5.728;2022-09-30T16:55:46;7.20;;;5.13;;
71154;SDS011;59375;53.216;5.728;2022-09-30T16:58:12;9.63;;;6.18;;
71154;SDS011;59375;53.216;5.728;2022-09-30T17:00:40;12.60;;;7.63;;
71154;SDS011;59375;53.216;5.728;2022-09-30T17:03:08;13.02;;;7.18;;
71154;SDS011;59375;53.216;5.728;2022-09-30T17:05:39;8.77;;;5.78;;
71154;SDS011;59375;53.216;5.728;2022-09-30T17:08:07;7.88;;;5.10;;
71154;SDS011;59375;53.216;5.728;2022-09-30T17:10:35;7.60;;;5.10;;
71154;SDS011;59375;53.216;5.728;2022-09-30T17:13:01;6.30;;;4.60;;
71154;SDS011;59375;53.216;5.728;2022-09-30T17:15:28;6.25;;;4.40;;
71154;SDS011;59375;53.216;5.728;2022-09-30T17:17:55;6.30;;;4.45;;
71154;SDS011;59375;53.216;5.728;2022-09-30T17:20:21;6.15;;;4.15;;
71154;SDS011;59375;53.216;5.728;2022-09-30T17:22:48;6.13;;;4.15;;
71154;SDS011;59375;53.216;5.728;2022-09-30T17:25:14;6.13;;;3.88;;
71154;SDS011;59375;53.216;5.728;2022-09-30T17:27:40;5.22;;;3.70;;
71154;SDS011;59375;53.216;5.728;2022-09-30T17:30:05;6.20;;;3.80;;
71154;SDS011;59375;53.216;5.728;2022-09-30T17:32:32;5.25;;;3.50;;
71154;SDS011;59375;53.216;5.728;2022-09-30T17:34:59;5.47;;;3.53;;
71154;SDS011;59375;53.216;5.728;2022-09-30T17:37:24;6.20;;;3.78;;
71154;SDS011;59375;53.216;5.728;2022-09-30T17:39:51;5.60;;;3.60;;
71154;SDS011;59375;53.216;5.728;2022-09-30T17:42:17;5.63;;;3.70;;
71154;SDS011;59375;53.216;5.728;2022-09-30T17:45:01;8.55;;;4.30;;
71154;SDS011;59375;53.216;5.728;2022-09-30T17:47:27;5.78;;;4.45;;
71154;SDS011;59375;53.216;5.728;2022-09-30T17:49:53;16.75;;;11.52;;
71154;SDS011;59375;53.216;5.728;2022-09-30T17:52:18;6.57;;;4.57;;
71154;SDS011;59375;53.216;5.728;2022-09-30T17:54:45;6.47;;;4.88;;
71154;SDS011;59375;53.216;5.728;2022-09-30T17:57:13;7.90;;;5.53;;
71154;SDS011;59375;53.216;5.728;2022-09-30T17:59:38;7.95;;;5.90;;
71154;SDS011;59375;53.216;5.728;2022-09-30T18:02:04;9.45;;;5.45;;
71154;SDS011;59375;53.216;5.728;2022-09-30T18:04:30;8.23;;;5.25;;
71154;SDS011;59375;53.216;5.728;2022-09-30T18:06:55;7.35;;;5.70;;
71154;SDS011;59375;53.216;5.728;2022-09-30T18:09:21;7.93;;;5.68;;